Time;durP1;ratioP1;P1;durP2;ratioP2;P2;SDS_P1;SDS_P2;PMS_P1;PMS_P2;Temp;Humidity;BMP_temperature;BMP_pressure;BME280_temperature;BME280_humidity;BME280_pressure;Samples;Min_cycle;Max_cycle;Signal;HPM_P1;HPM_P2
2022/05/07 00:02:40;;;;;;;;;43.20;32.20;;;;;19.92;54.70;99344.78;6249853;27;97321;-65
2022/05/07 00:05:44;;;;;;;;;36.80;32.20;;;;;19.87;54.60;99348.34;6241996;27;97416;-65
2022/05/07 00:08:49;;;;;;;;;41.00;31.80;;;;;19.82;54.80;99340.94;6211227;28;98338;-65
2022/05/07 00:11:52;;;;;;;;;35.80;32.00;;;;;19.77;54.80;99349.16;6221162;27;97050;-65
2022/05/07 00:14:56;;;;;;;;;38.20;33.00;;;;;19.79;54.59;99344.22;6253250;27;96621;-65
2022/05/07 00:18:03;;;;;;;;;38.00;32.60;;;;;19.81;54.65;99343.94;6256392;27;97465;-67
2022/05/07 00:21:08;;;;;;;;;37.00;32.00;;;;;19.82;54.52;99340.13;6245002;27;96551;-66
2022/05/07 00:24:11;;;;;;;;;43.00;33.40;;;;;19.81;54.41;99344.78;6257170;27;97160;-65
2022/05/07 00:27:14;;;;;;;;;44.20;34.00;;;;;19.82;54.50;99351.06;6236884;27;97099;-65
2022/05/07 00:30:17;;;;;;;;;41.80;32.40;;;;;19.83;54.55;99348.06;6242826;27;98389;-65
2022/05/07 00:33:23;;;;;;;;;40.40;32.00;;;;;19.86;54.24;99349.44;6241473;27;97366;-65
2022/05/07 00:36:27;;;;;;;;;39.40;34.40;;;;;19.77;54.32;99329.19;6223524;28;98438;-67
2022/05/07 00:39:30;;;;;;;;;41.80;33.00;;;;;19.85;54.46;99331.38;6209855;27;97753;-66
2022/05/07 00:42:33;;;;;;;;;39.60;33.00;;;;;19.84;54.19;99344.22;6235117;27;99685;-66
2022/05/07 00:45:37;;;;;;;;;41.00;33.00;;;;;19.86;54.24;99339.31;6242599;27;96575;-65
2022/05/07 00:48:42;;;;;;;;;43.25;33.00;;;;;19.87;54.22;99338.22;6260915;27;96796;-63
2022/05/07 00:51:46;;;;;;;;;38.60;32.60;;;;;19.83;54.33;99337.13;6239905;27;97618;-65
2022/05/07 00:54:50;;;;;;;;;39.20;32.20;;;;;19.86;54.57;99335.75;6218378;28;97542;-63
2022/05/07 00:57:57;;;;;;;;;44.67;34.67;;;;;19.85;54.36;99339.56;6224697;27;96936;-65
2022/05/07 01:01:01;;;;;;;;;36.50;33.00;;;;;19.81;54.60;99338.47;6242058;27;97090;-65
2022/05/07 01:04:05;;;;;;;;;40.40;33.00;;;;;19.79;54.42;99343.41;6204102;28;97816;-65
2022/05/07 01:07:10;;;;;;;;;41.33;33.00;;;;;19.79;54.72;99335.22;6199118;27;97497;-65
2022/05/07 01:10:14;;;;;;;;;45.00;32.60;;;;;19.74;54.71;99333.25;6238473;27;97962;-64
2022/05/07 01:13:18;;;;;;;;;39.80;33.40;;;;;19.71;54.67;99331.06;6240671;27;96664;-65
2022/05/07 01:16:23;;;;;;;;;41.40;33.00;;;;;19.75;54.57;99332.16;6225756;27;96695;-67
2022/05/07 01:19:28;;;;;;;;;41.60;33.00;;;;;19.76;54.42;99328.34;6242520;27;99527;-67
2022/05/07 01:22:34;;;;;;;;;43.50;33.00;;;;;19.75;54.47;99331.34;6224422;27;96843;-65
2022/05/07 01:25:39;;;;;;;;;44.00;35.60;;;;;19.75;54.48;99331.34;6238803;27;96612;-66
2022/05/07 01:28:42;;;;;;;;;45.40;35.00;;;;;19.76;54.28;99335.72;6231238;27;96308;-64
2022/05/07 01:31:47;;;;;;;;;42.40;35.40;;;;;19.78;54.45;99334.38;6241552;27;96630;-66
2022/05/07 01:34:51;;;;;;;;;43.40;35.00;;;;;19.80;54.47;99332.19;6235333;27;97512;-66
2022/05/07 01:37:57;;;;;;;;;43.60;35.00;;;;;19.80;54.33;99334.09;6209074;27;99212;-65
2022/05/07 01:41:04;;;;;;;;;43.25;33.50;;;;;19.80;54.62;99329.44;6235978;27;97213;-66
2022/05/07 01:44:09;;;;;;;;;38.60;33.00;;;;;19.79;54.48;99327.78;6214975;28;97720;-66
2022/05/07 01:50:33;;;;;;;;;44.40;35.00;;;;;19.67;54.31;99312.75;6206541;27;97783;-67
2022/05/07 01:53:37;;;;;;;;;44.00;34.25;;;;;19.79;54.12;99327.78;6238481;27;96532;-67
2022/05/07 01:56:41;;;;;;;;;42.00;35.00;;;;;19.79;54.39;99327.78;6222038;28;96403;-67
2022/05/07 01:59:44;;;;;;;;;46.67;36.00;;;;;19.77;54.68;99321.78;6238353;27;97015;-65
2022/05/07 02:02:50;;;;;;;;;44.80;36.00;;;;;19.75;54.52;99323.13;6245105;27;97420;-68
2022/05/07 02:05:59;;;;;;;;;43.60;34.00;;;;;19.77;54.28;99321.78;6263422;27;96560;-66
2022/05/07 02:09:05;;;;;;;;;40.20;33.00;;;;;19.75;54.39;99329.44;6228541;27;99410;-64
2022/05/07 02:12:11;;;;;;;;;43.20;35.00;;;;;19.73;54.53;99328.91;6227828;27;97001;-66
2022/05/07 02:15:18;;;;;;;;;39.50;33.25;;;;;19.72;54.91;99330.00;6234663;27;96483;-65
2022/05/07 02:18:25;;;;;;;;;42.00;33.40;;;;;19.67;54.58;99316.28;6229784;27;96524;-66
2022/05/07 02:21:29;;;;;;;;;40.00;33.00;;;;;19.70;54.96;99326.69;6219858;28;97038;-66
2022/05/07 02:24:33;;;;;;;;;40.25;33.00;;;;;19.67;54.90;99332.72;6221005;28;98762;-64
2022/05/07 02:27:42;;;;;;;;;44.40;35.00;;;;;19.66;55.03;99325.59;6223844;27;97745;-65
2022/05/07 02:30:46;;;;;;;;;42.60;33.20;;;;;19.58;54.94;99319.84;6244893;27;96624;-67
2022/05/07 02:33:50;;;;;;;;;46.00;35.00;;;;;19.68;54.76;99323.41;6236380;28;99879;-66
2022/05/07 02:36:55;;;;;;;;;44.80;34.40;;;;;19.69;54.85;99336.00;6220775;27;97710;-64
2022/05/07 02:39:59;;;;;;;;;40.50;33.00;;;;;19.67;55.12;99327.25;6218751;28;96842;-64
2022/05/07 02:43:10;;;;;;;;;42.80;34.60;;;;;19.65;55.05;99328.59;6229852;28;97785;-65
2022/05/07 02:46:13;;;;;;;;;44.75;36.00;;;;;19.69;55.16;99337.91;6212405;28;97569;-67
2022/05/07 02:49:18;;;;;;;;;45.25;35.00;;;;;19.70;55.11;99334.91;6212559;28;98158;-66
2022/05/07 02:52:22;;;;;;;;;45.60;35.00;;;;;19.71;55.07;99333.81;6217862;28;96690;-67
2022/05/07 02:55:27;;;;;;;;;43.80;36.00;;;;;19.74;55.02;99338.72;6228999;28;97395;-68
2022/05/07 02:58:31;;;;;;;;;46.80;37.00;;;;;19.72;54.81;99335.47;6211521;28;96956;-65
2022/05/07 03:01:35;;;;;;;;;45.00;35.00;;;;;19.71;55.10;99331.06;6213679;28;97014;-68
2022/05/07 03:04:38;;;;;;;;;41.00;35.00;;;;;19.72;54.95;99338.19;6217304;28;96569;-67
2022/05/07 03:07:42;;;;;;;;;46.00;36.00;;;;;19.75;54.78;99339.56;6212176;28;97477;-67
2022/05/07 03:10:54;;;;;;;;;46.00;36.20;;;;;19.75;54.76;99339.56;6232356;28;96692;-66
2022/05/07 03:13:58;;;;;;;;;41.75;33.50;;;;;19.69;55.22;99344.22;6214247;28;97137;-66
2022/05/07 03:17:01;;;;;;;;;45.00;36.00;;;;;19.66;55.20;99349.38;6238183;27;97412;-65
2022/05/07 03:20:09;;;;;;;;;46.00;36.00;;;;;19.67;55.22;99345.56;6219006;28;96704;-67
2022/05/07 03:23:14;;;;;;;;;42.00;35.00;;;;;19.65;55.16;99342.25;6228277;28;96626;-65
2022/05/07 03:26:22;;;;;;;;;45.00;36.80;;;;;19.68;55.07;99339.00;6227734;28;97444;-66
2022/05/07 03:29:25;;;;;;;;;45.60;37.60;;;;;19.63;55.31;99349.94;6211335;28;98455;-66
2022/05/07 03:32:36;;;;;;;;;49.25;38.75;;;;;19.65;55.42;99353.22;6214746;28;98428;-66
2022/05/07 03:35:40;;;;;;;;;41.50;34.25;;;;;19.67;55.13;99356.50;6229178;27;96575;-66
2022/05/07 03:38:43;;;;;;;;;46.60;35.60;;;;;19.67;55.14;99357.31;6221052;28;97474;-66
2022/05/07 03:41:54;;;;;;;;;46.20;35.60;;;;;19.71;55.31;99366.63;6233563;27;97163;-66
2022/05/07 03:44:57;;;;;;;;;47.00;36.00;;;;;19.74;55.03;99355.16;6211838;28;97668;-64
2022/05/07 03:48:02;;;;;;;;;47.00;36.50;;;;;19.75;55.23;99364.19;6212394;28;97152;-67
2022/05/07 03:51:06;;;;;;;;;44.00;35.00;;;;;19.76;55.46;99369.38;6235089;28;97060;-67
2022/05/07 03:54:09;;;;;;;;;46.67;38.00;;;;;19.79;55.37;99365.31;6236068;28;97157;-65
2022/05/07 03:57:16;;;;;;;;;44.25;35.25;;;;;19.79;55.12;99360.63;6210560;28;96659;-66
2022/05/07 04:00:20;;;;;;;;;46.60;36.00;;;;;19.79;55.38;99359.84;6229578;28;98607;-67
2022/05/07 04:03:29;;;;;;;;;41.00;35.00;;;;;19.80;55.17;99362.28;6198747;28;98488;-65
2022/05/07 04:06:34;;;;;;;;;41.20;35.00;;;;;19.83;55.45;99359.03;6203817;28;97783;-66
2022/05/07 04:09:38;;;;;;;;;47.00;35.00;;;;;19.86;55.56;99357.66;6234190;28;97232;-66
2022/05/07 04:12:51;;;;;;;;;41.00;34.00;;;;;19.82;55.15;99367.50;6236088;28;97192;-64
2022/05/07 04:16:00;;;;;;;;;45.75;36.00;;;;;19.82;55.03;99362.03;6234208;28;96515;-66
2022/05/07 04:19:11;;;;;;;;;43.00;35.00;;;;;19.83;55.32;99367.22;6209981;28;97248;-65
2022/05/07 04:22:17;;;;;;;;;40.75;34.00;;;;;19.78;55.25;99360.91;6221559;28;96640;-65
2022/05/07 04:25:21;;;;;;;;;42.50;34.00;;;;;19.75;55.21;99365.00;6220557;27;98444;-66
2022/05/07 04:28:26;;;;;;;;;45.50;36.00;;;;;19.75;55.50;99365.00;6224641;28;98132;-65
2022/05/07 04:31:32;;;;;;;;;42.60;34.60;;;;;19.80;55.33;99366.94;6232635;28;97215;-65
2022/05/07 04:34:40;;;;;;;;;45.00;33.00;;;;;19.85;55.50;99362.28;6220236;28;97459;-66
2022/05/07 04:37:43;;;;;;;;;47.00;36.00;;;;;19.92;55.23;99366.69;6240831;27;97435;-67
2022/05/07 04:40:48;;;;;;;;;46.00;35.75;;;;;19.97;55.61;99362.06;6211739;28;97735;-66
2022/05/07 04:43:56;;;;;;;;;44.00;33.00;;;;;20.05;54.92;99364.25;6218133;28;96550;-66
2022/05/07 04:46:59;;;;;;;;;46.80;36.00;;;;;20.01;55.17;99352.19;6235305;27;97115;-66
2022/05/07 04:50:03;;;;;;;;;43.00;35.00;;;;;20.24;54.93;99364.53;6224161;27;96737;-67
2022/05/07 04:53:13;;;;;;;;;45.00;35.40;;;;;20.35;54.75;99376.34;6210121;28;97574;-64
2022/05/07 04:56:21;;;;;;;;;40.67;33.67;;;;;20.43;53.91;99373.06;6230629;27;96952;-64
2022/05/07 04:59:38;;;;;;;;;35.00;30.00;;;;;20.35;51.43;99344.31;6236017;27;96421;-66
2022/05/07 05:02:47;;;;;;;;;34.25;30.00;;;;;20.53;50.31;99371.13;6218453;28;96928;-66
2022/05/07 05:05:54;;;;;;;;;30.20;25.80;;;;;20.54;48.75;99369.22;6226217;27;97628;-67
2022/05/07 05:09:16;;;;;;;;;25.00;22.00;;;;;20.58;46.79;99373.03;6249219;27;96959;-68
2022/05/07 05:12:26;;;;;;;;;23.00;20.00;;;;;20.59;46.52;99380.16;6222355;27;97019;-65
2022/05/07 05:15:32;;;;;;;;;20.00;18.00;;;;;20.61;45.84;99378.00;6237418;27;97687;-66
2022/05/07 05:18:39;;;;;;;;;17.00;16.60;;;;;20.61;44.04;99375.25;6217478;27;97275;-66
2022/05/07 05:21:45;;;;;;;;;15.00;13.00;;;;;20.62;43.15;99371.44;6234373;27;96754;-64
2022/05/07 05:24:57;;;;;;;;;16.00;13.00;;;;;20.67;43.47;99374.94;6231194;27;97249;-64
2022/05/07 05:28:00;;;;;;;;;13.00;12.00;;;;;20.75;44.13;99382.63;6241777;27;97906;-66
2022/05/07 05:31:05;;;;;;;;;17.40;15.00;;;;;20.82;43.80;99381.53;6252289;27;96754;-67
2022/05/07 05:34:14;;;;;;;;;16.00;15.00;;;;;20.89;43.58;99380.13;6244050;27;97418;-64
2022/05/07 05:37:24;;;;;;;;;16.20;15.00;;;;;20.97;43.01;99382.31;6244348;27;97425;-65
2022/05/07 05:40:28;;;;;;;;;13.40;12.40;;;;;21.04;42.47;99382.03;6251992;27;97129;-67
2022/05/07 05:43:33;;;;;;;;;15.60;14.00;;;;;21.17;42.44;99386.94;6240179;27;97627;-65
2022/05/07 05:46:38;;;;;;;;;16.00;15.40;;;;;21.22;41.83;99389.69;6246059;27;97347;-68
2022/05/07 05:49:42;;;;;;;;;15.00;13.00;;;;;21.31;41.74;99392.66;6244709;27;97378;-66
2022/05/07 05:52:45;;;;;;;;;15.80;14.40;;;;;21.42;41.42;99395.09;6239706;27;97504;-67
2022/05/07 05:55:49;;;;;;;;;13.60;12.00;;;;;21.52;41.47;99395.06;6212950;27;96696;-67
2022/05/07 05:58:57;;;;;;;;;13.00;11.60;;;;;21.57;41.19;99394.22;6244834;27;96538;-67
2022/05/07 06:02:07;;;;;;;;;15.50;13.00;;;;;21.72;41.21;99407.88;6224800;27;97025;-66
2022/05/07 06:05:17;;;;;;;;;13.20;13.20;;;;;21.80;39.13;99404.53;6246488;27;98473;-66
2022/05/07 06:08:26;;;;;;;;;13.75;13.00;;;;;21.82;40.22;99409.75;6221701;28;98016;-65
2022/05/07 06:11:30;;;;;;;;;15.75;14.50;;;;;21.83;40.59;99414.13;6221888;28;97492;-65
2022/05/07 06:14:33;;;;;;;;;15.40;15.00;;;;;21.87;39.91;99415.22;6217556;28;98208;-69
2022/05/07 06:17:41;;;;;;;;;15.25;14.75;;;;;21.91;39.20;99416.28;6220930;28;96452;-65
2022/05/07 07:31:28;;;;;;;;;17.00;16.00;;;;;23.76;34.21;99438.88;6244834;27;97833;-67
2022/05/07 07:34:31;;;;;;;;;15.00;12.60;;;;;23.64;34.81;99431.06;6248543;27;97624;-65
2022/05/07 07:37:35;;;;;;;;;15.40;12.60;;;;;23.53;35.39;99439.72;6237800;28;96548;-67
2022/05/07 07:40:38;;;;;;;;;14.00;13.00;;;;;23.37;34.40;99425.28;6248161;27;99626;-66
2022/05/07 07:43:42;;;;;;;;;15.00;14.20;;;;;23.25;34.90;99436.72;6233002;27;97183;-65
2022/05/07 07:50:09;;;;;;;;;14.20;13.20;;;;;23.29;34.80;99440.50;6215951;27;97946;-65
2022/05/07 07:53:13;;;;;;;;;14.00;11.00;;;;;23.27;33.78;99434.47;6220669;27;99437;-65
2022/05/07 07:56:18;;;;;;;;;13.00;13.00;;;;;23.31;35.17;99438.28;6219496;28;96421;-65
2022/05/07 07:59:21;;;;;;;;;14.40;14.00;;;;;23.37;35.42;99438.22;6219758;28;99095;-63
2022/05/07 08:02:26;;;;;;;;;16.20;13.60;;;;;23.47;35.81;99449.16;6235365;28;96695;-65
2022/05/07 08:05:31;;;;;;;;;14.00;13.00;;;;;23.54;35.29;99438.63;6237175;27;96590;-65
2022/05/07 08:11:59;;;;;;;;;16.00;14.00;;;;;23.60;36.01;99442.97;6245263;27;96850;-67
2022/05/07 08:15:03;;;;;;;;;15.00;14.00;;;;;23.70;35.74;99442.84;6252569;27;97571;-63
2022/05/07 08:18:08;;;;;;;;;19.00;17.00;;;;;23.77;35.03;99446.03;6258996;27;97035;-64
2022/05/07 08:21:12;;;;;;;;;16.75;14.00;;;;;23.83;36.05;99441.28;6236684;27;97570;-67
2022/05/07 08:24:16;;;;;;;;;20.00;17.60;;;;;23.89;35.52;99440.13;6236420;28;97547;-67
2022/05/07 08:27:19;;;;;;;;;20.00;17.50;;;;;23.93;34.39;99446.66;6235088;28;97206;-67
2022/05/07 08:30:22;;;;;;;;;18.25;17.00;;;;;23.95;33.92;99450.75;6215773;28;97231;-68
2022/05/07 08:33:28;;;;;;;;;19.00;16.60;;;;;23.93;35.17;99455.75;6216020;28;97408;-64
2022/05/07 08:36:31;;;;;;;;;20.00;19.00;;;;;24.00;35.74;99453.44;6233607;28;96462;-68
2022/05/07 08:39:34;;;;;;;;;18.40;16.60;;;;;24.12;35.20;99453.00;6258833;27;96939;-65
2022/05/07 08:42:38;;;;;;;;;19.50;18.50;;;;;24.14;35.48;99451.59;6234962;27;96715;-62
2022/05/07 08:45:43;;;;;;;;;19.00;17.25;;;;;24.23;34.23;99462.81;6236438;28;97431;-63
2022/05/07 08:48:50;;;;;;;;;18.00;16.60;;;;;24.34;34.42;99458.78;6253571;27;97110;-64
2022/05/07 08:51:54;;;;;;;;;16.40;15.00;;;;;24.46;32.90;99459.16;6261621;27;96701;-64
2022/05/07 08:54:58;;;;;;;;;16.20;14.60;;;;;24.44;33.30;99457.78;6261975;27;97395;-63
2022/05/07 08:58:03;;;;;;;;;15.00;13.00;;;;;24.57;34.20;99459.81;6247099;27;97447;-67
2022/05/07 09:01:08;;;;;;;;;15.00;14.00;;;;;24.68;33.69;99458.53;6248261;27;96972;-67
2022/05/07 09:04:14;;;;;;;;;16.40;14.00;;;;;24.88;32.24;99463.72;6266285;27;96603;-67
2022/05/07 09:07:17;;;;;;;;;17.00;15.00;;;;;25.14;32.95;99461.38;6244171;27;96779;-66
2022/05/07 09:10:21;;;;;;;;;16.00;14.00;;;;;25.48;32.17;99465.69;6241095;28;96405;-65
2022/05/07 09:13:24;;;;;;;;;15.00;14.00;;;;;25.76;30.88;99464.59;6239654;28;96873;-65
2022/05/07 09:16:37;;;;;;;;;15.00;14.00;;;;;25.93;30.76;99455.72;6222331;28;96416;-63
2022/05/07 09:19:42;;;;;;;;;16.40;15.00;;;;;26.25;31.11;99461.91;6245989;27;98096;-65
2022/05/07 09:22:53;;;;;;;;;15.75;15.00;;;;;26.52;30.40;99452.72;6249016;27;97574;-65
2022/05/07 09:25:56;;;;;;;;;12.50;12.50;;;;;26.95;28.25;99477.16;6250150;27;97669;-63
2022/05/07 09:29:03;;;;;;;;;13.00;12.00;;;;;27.25;28.19;99470.84;6213855;27;98093;-67
2022/05/07 09:32:13;;;;;;;;;12.50;12.00;;;;;27.46;27.93;99471.13;6247971;27;97523;-66
2022/05/07 09:38:39;;;;;;;;;12.40;9.40;;;;;28.29;27.30;99470.13;6238733;27;97520;-65
2022/05/07 09:41:43;;;;;;;;;8.60;8.60;;;;;28.63;24.08;99466.53;6247675;27;96789;-63
2022/05/07 09:44:48;;;;;;;;;14.00;10.00;;;;;28.84;24.22;99458.38;6230859;27;97476;-66
2022/05/07 09:47:51;;;;;;;;;9.00;8.00;;;;;29.25;25.93;99455.03;6242048;27;97385;-66
2022/05/07 09:50:58;;;;;;;;;9.00;8.00;;;;;29.60;24.26;99458.53;6243780;27;97464;-65
2022/05/07 09:57:34;;;;;;;;;7.00;7.00;;;;;30.13;24.52;99435.69;6250023;27;97106;-66
2022/05/07 10:00:49;;;;;;;;;8.67;8.00;;;;;30.42;22.91;99451.50;6245982;27;97311;-66
2022/05/07 10:04:06;;;;;;;;;10.25;9.00;;;;;30.60;22.24;99443.88;6233548;27;96859;-64
2022/05/07 10:07:33;;;;;;;;;10.40;9.00;;;;;30.75;23.97;99444.06;6236094;27;97533;-63
2022/05/07 10:10:38;;;;;;;;;8.40;8.40;;;;;31.06;23.34;99438.06;6250998;27;96915;-66
2022/05/07 10:13:52;;;;;;;;;8.80;8.40;;;;;31.35;22.87;99440.66;6237658;27;97110;-65
2022/05/07 10:17:24;;;;;;;;;9.00;9.00;;;;;31.30;20.43;99435.31;6238491;27;97031;-63
2022/05/07 10:20:38;;;;;;;;;8.00;8.00;;;;;31.05;19.99;99432.81;6230534;27;98636;-66
2022/05/07 10:23:54;;;;;;;;;7.40;7.40;;;;;31.16;20.91;99436.78;6264829;27;97442;-67
2022/05/07 10:26:58;;;;;;;;;9.00;8.00;;;;;31.37;21.08;99426.41;6254031;27;97472;-63
2022/05/07 10:30:06;;;;;;;;;8.00;8.00;;;;;31.52;21.21;99416.53;6240612;27;97002;-63
2022/05/07 10:33:10;;;;;;;;;10.00;9.80;;;;;31.74;20.30;99428.06;6239148;27;96526;-64
2022/05/07 10:36:14;;;;;;;;;10.00;9.50;;;;;31.73;18.62;99418.06;6239405;27;96625;-65
2022/05/07 10:39:21;;;;;;;;;11.00;10.60;;;;;31.56;19.69;99420.25;6257509;27;96741;-65
2022/05/07 10:42:27;;;;;;;;;10.00;10.00;;;;;31.19;19.45;99397.09;6240341;27;97246;-67
2022/05/07 10:45:41;;;;;;;;;9.20;7.20;;;;;30.91;19.82;99406.06;6229661;27;97469;-63
2022/05/07 10:48:45;;;;;;;;;9.60;9.00;;;;;30.21;19.83;99408.97;6251611;27;96807;-67
2022/05/07 10:51:58;;;;;;;;;9.00;7.60;;;;;29.94;21.21;99402.78;6235213;27;98385;-67
2022/05/07 10:55:09;;;;;;;;;9.00;8.00;;;;;29.58;21.57;99371.91;6243918;27;97590;-66
2022/05/07 10:58:12;;;;;;;;;10.00;9.00;;;;;29.39;21.02;99402.06;6255049;27;96770;-65
2022/05/07 11:01:17;;;;;;;;;8.50;7.00;;;;;29.14;21.38;99403.78;6239540;27;96852;-63
2022/05/07 11:04:22;;;;;;;;;10.40;9.00;;;;;29.14;22.26;99390.72;6255286;27;97371;-62
2022/05/07 11:07:27;;;;;;;;;9.60;9.40;;;;;29.25;23.12;99393.94;6233609;27;97719;-62
2022/05/07 11:10:32;;;;;;;;;10.60;9.60;;;;;29.38;23.27;99392.09;6258459;27;96671;-63
2022/05/07 11:13:44;;;;;;;;;9.00;9.00;;;;;29.54;23.90;99398.75;6209064;27;98136;-63
2022/05/07 11:16:47;;;;;;;;;10.00;9.00;;;;;29.74;23.55;99397.16;6239516;27;97587;-66
2022/05/07 11:19:51;;;;;;;;;10.00;9.80;;;;;29.77;23.09;99372.28;6245361;27;96713;-64
2022/05/07 11:23:00;;;;;;;;;9.60;9.00;;;;;29.96;22.99;99389.34;6226851;27;97743;-66
2022/05/07 11:26:12;;;;;;;;;9.00;8.00;;;;;30.00;22.67;99378.38;6254775;27;97459;-64
2022/05/07 11:29:16;;;;;;;;;8.40;8.00;;;;;30.33;21.91;99376.47;6247926;27;96732;-68
2022/05/07 11:32:19;;;;;;;;;8.00;7.00;;;;;30.67;21.46;99378.16;6246987;27;97446;-66
2022/05/07 11:35:24;;;;;;;;;8.00;8.00;;;;;31.08;23.02;99382.81;6241457;27;96899;-69
2022/05/07 11:38:28;;;;;;;;;8.20;7.20;;;;;31.32;20.94;99382.03;6257338;27;97506;-68
2022/05/07 11:41:33;;;;;;;;;10.50;9.50;;;;;31.46;20.89;99390.06;6245987;27;97471;-66
2022/05/07 11:48:17;;;;;;;;;8.40;7.80;;;;;31.20;21.56;99385.63;6217997;27;97407;-68
2022/05/07 11:51:25;;;;;;;;;8.60;8.60;;;;;31.07;20.75;99363.66;6237075;27;97535;-66
2022/05/07 11:54:28;;;;;;;;;8.00;8.00;;;;;31.05;21.25;99368.75;6238716;27;97456;-65
2022/05/07 11:57:35;;;;;;;;;8.50;8.00;;;;;31.06;22.29;99384.31;6227238;27;96989;-66
2022/05/07 12:00:41;;;;;;;;;9.00;9.00;;;;;30.83;21.53;99354.09;6240448;27;97712;-70
2022/05/07 12:03:45;;;;;;;;;9.50;9.00;;;;;30.63;20.16;99368.88;6257405;27;97465;-66
2022/05/07 12:06:56;;;;;;;;;9.60;9.00;;;;;30.35;20.79;99365.81;6204879;27;97740;-67
2022/05/07 12:10:00;;;;;;;;;7.25;7.00;;;;;30.09;20.94;99359.66;6243754;27;96507;-67
2022/05/07 12:13:06;;;;;;;;;8.00;7.50;;;;;29.98;21.89;99353.69;6243318;27;97346;-67
2022/05/07 12:19:30;;;;;;;;;7.00;7.00;;;;;29.89;22.06;99361.28;6241358;27;97428;-67
2022/05/07 12:32:36;;;;;;;;;9.60;9.00;;;;;29.66;21.65;99365.50;6239635;27;97616;-69
2022/05/07 12:35:39;;;;;;;;;8.80;7.00;;;;;29.63;23.02;99350.31;6256633;27;96993;-69
2022/05/07 12:38:43;;;;;;;;;9.60;8.00;;;;;29.68;23.16;99344.56;6252784;27;97374;-69
2022/05/07 12:41:49;;;;;;;;;10.00;8.00;;;;;29.61;22.70;99346.25;6220673;28;97473;-69
2022/05/07 12:44:56;;;;;;;;;9.60;9.00;;;;;29.60;23.30;99344.63;6236786;27;97302;-69
2022/05/07 12:47:59;;;;;;;;;11.00;9.50;;;;;29.39;22.39;99338.19;6243057;27;96667;-68
2022/05/07 12:51:03;;;;;;;;;9.20;9.00;;;;;29.18;23.39;99344.47;6218698;28;96502;-69
2022/05/07 12:54:06;;;;;;;;;8.00;7.40;;;;;29.14;22.86;99346.28;6219393;28;98062;-68
2022/05/07 12:57:10;;;;;;;;;7.50;7.00;;;;;29.13;22.99;99339.09;6251070;27;96621;-67
2022/05/07 13:00:17;;;;;;;;;9.00;7.00;;;;;29.20;23.62;99338.59;6244039;27;96473;-69
2022/05/07 13:03:20;;;;;;;;;9.00;9.00;;;;;29.47;23.56;99340.13;6243706;27;96767;-64
2022/05/07 13:06:24;;;;;;;;;8.00;7.50;;;;;29.57;22.82;99334.97;6246077;27;97512;-68
2022/05/07 13:09:27;;;;;;;;;8.00;7.00;;;;;29.71;23.38;99338.31;6242627;27;97044;-66
2022/05/07 13:12:51;;;;;;;;;9.00;8.00;;;;;29.68;22.44;99332.63;6251824;27;97522;-66
2022/05/07 13:15:55;;;;;;;;;7.00;7.00;;;;;29.58;23.77;99333.81;6221488;28;97404;-65
2022/05/07 13:18:59;;;;;;;;;9.00;8.00;;;;;29.41;22.59;99327.56;6208021;28;98842;-68
2022/05/07 13:22:02;;;;;;;;;8.60;8.00;;;;;29.24;23.53;99329.25;6237726;27;97305;-65
2022/05/07 13:25:06;;;;;;;;;7.20;7.00;;;;;29.26;23.69;99331.69;6248079;27;97494;-65
2022/05/07 13:28:10;;;;;;;;;8.00;7.00;;;;;29.24;24.93;99326.47;6238998;27;96690;-69
2022/05/07 13:31:15;;;;;;;;;9.00;8.00;;;;;29.12;24.36;99318.06;6252604;27;97599;-66
2022/05/07 13:34:18;;;;;;;;;9.00;7.00;;;;;29.05;24.21;99322.47;6253974;27;97461;-68
2022/05/07 13:37:21;;;;;;;;;9.00;8.60;;;;;28.79;24.35;99297.59;6253692;27;96613;-68
2022/05/07 13:40:31;;;;;;;;;8.00;8.00;;;;;28.81;23.92;99318.31;6245417;27;96682;-66
2022/05/07 13:43:34;;;;;;;;;8.80;7.20;;;;;28.65;24.47;99336.63;6235498;27;97719;-67
2022/05/07 13:46:39;;;;;;;;;8.00;7.00;;;;;28.08;24.56;99307.47;6258826;27;97456;-67
2022/05/07 13:49:44;;;;;;;;;9.00;8.00;;;;;27.97;25.06;99304.19;6240450;27;97453;-68
2022/05/07 13:52:47;;;;;;;;;9.00;8.00;;;;;27.90;25.50;99303.91;6222136;28;97039;-65
2022/05/07 13:55:50;;;;;;;;;10.20;9.00;;;;;27.73;25.25;99309.41;6239381;28;96602;-68
2022/05/07 13:58:54;;;;;;;;;9.00;8.00;;;;;27.47;25.52;99306.56;6259209;27;96902;-66
2022/05/07 14:01:59;;;;;;;;;10.00;10.00;;;;;27.24;25.36;99308.63;6241646;27;97847;-66
2022/05/07 14:05:02;;;;;;;;;9.00;9.00;;;;;27.07;26.43;99301.06;6239067;27;97855;-68
2022/05/07 14:08:06;;;;;;;;;9.00;9.00;;;;;27.05;26.43;99308.09;6213322;27;97279;-66
2022/05/07 14:11:10;;;;;;;;;10.40;9.40;;;;;26.98;26.55;99303.00;6259649;27;97426;-65
2022/05/07 14:14:13;;;;;;;;;11.00;10.00;;;;;26.77;26.91;99298.31;6257714;27;97967;-68
2022/05/07 14:17:17;;;;;;;;;9.40;8.40;;;;;26.72;27.81;99299.28;6258708;27;96603;-68
2022/05/07 14:20:21;;;;;;;;;11.00;10.00;;;;;26.62;27.85;99294.03;6263884;27;97072;-64
2022/05/07 14:23:25;;;;;;;;;9.00;8.00;;;;;26.62;27.48;99278.25;6256478;27;96579;-68
2022/05/07 14:26:34;;;;;;;;;8.00;8.00;;;;;26.55;27.30;99291.69;6257840;27;97419;-66
2022/05/07 14:29:38;;;;;;;;;10.20;10.20;;;;;26.43;27.27;99294.25;6256129;27;97006;-67
2022/05/07 14:32:42;;;;;;;;;9.40;8.00;;;;;26.37;28.49;99281.69;6237795;27;99975;-67
2022/05/07 14:35:48;;;;;;;;;10.00;10.00;;;;;26.27;27.84;99277.22;6240362;27;97496;-67
2022/05/07 14:38:51;;;;;;;;;9.25;8.00;;;;;26.26;27.64;99281.13;6259789;27;97096;-63
2022/05/07 14:41:55;;;;;;;;;10.00;9.00;;;;;26.18;27.86;99278.28;6260111;27;96960;-67
2022/05/07 14:44:59;;;;;;;;;9.00;8.00;;;;;26.13;28.13;99275.63;6235233;27;97105;-67
2022/05/07 14:48:04;;;;;;;;;10.00;9.00;;;;;26.11;28.74;99272.34;6244281;27;97446;-63
2022/05/07 14:51:08;;;;;;;;;10.00;9.40;;;;;26.02;28.25;99274.25;6213945;27;96671;-64
2022/05/07 14:54:12;;;;;;;;;10.00;10.00;;;;;25.87;29.03;99265.19;6227459;27;97882;-67
2022/05/07 14:57:15;;;;;;;;;10.00;9.25;;;;;25.86;29.28;99260.81;6220210;28;96490;-67
2022/05/07 15:00:19;;;;;;;;;10.00;9.60;;;;;25.74;29.42;99263.31;6220818;28;97606;-64
2022/05/07 15:03:24;;;;;;;;;10.75;10.00;;;;;25.68;29.39;99259.03;6245056;27;97415;-66
2022/05/07 15:06:28;;;;;;;;;13.00;12.60;;;;;25.63;30.14;99258.34;6248748;27;97449;-67
2022/05/07 15:12:52;;;;;;;;;11.00;10.00;;;;;25.57;29.87;99251.28;6241165;27;96622;-65
2022/05/07 15:15:56;;;;;;;;;14.40;14.00;;;;;25.36;29.95;99235.16;6244637;27;96835;-66
2022/05/07 15:19:00;;;;;;;;;12.20;12.20;;;;;25.38;30.00;99249.47;6238148;27;97478;-63
2022/05/07 15:22:04;;;;;;;;;12.00;11.00;;;;;25.36;30.26;99248.16;6249368;27;97873;-67
2022/05/07 15:25:09;;;;;;;;;12.40;12.20;;;;;25.36;30.34;99254.47;6247928;27;97592;-65
2022/05/07 15:28:12;;;;;;;;;9.00;8.75;;;;;25.29;30.29;99242.22;6245222;27;97458;-63
2022/05/07 15:31:16;;;;;;;;;10.80;9.80;;;;;25.33;30.10;99240.47;6242370;27;96734;-67
2022/05/07 15:37:42;;;;;;;;;12.00;11.00;;;;;25.37;30.01;99233.22;6239460;27;97010;-64
2022/05/07 15:40:45;;;;;;;;;14.00;12.40;;;;;25.35;30.36;99232.72;6216123;27;97448;-67
2022/05/07 15:43:49;;;;;;;;;11.00;11.00;;;;;25.13;30.22;99207.81;6225502;27;97412;-67
2022/05/07 15:46:53;;;;;;;;;11.00;10.00;;;;;25.33;30.49;99233.03;6231335;27;97797;-68
2022/05/07 15:49:57;;;;;;;;;15.40;14.00;;;;;25.32;30.23;99231.38;6261759;27;96549;-64
2022/05/07 15:53:01;;;;;;;;;11.60;11.00;;;;;25.29;29.93;99225.69;6262763;27;96561;-66
2022/05/07 15:56:05;;;;;;;;;10.00;10.00;;;;;25.22;30.63;99228.84;6256968;27;97510;-64
2022/05/07 15:59:09;;;;;;;;;14.00;13.40;;;;;25.16;31.10;99226.53;6237477;28;97641;-63
2022/05/07 16:02:13;;;;;;;;;16.00;15.20;;;;;25.08;31.01;99227.22;6237667;28;97463;-66
2022/05/07 16:05:18;;;;;;;;;11.50;11.00;;;;;25.03;31.20;99233.69;6219254;27;96828;-65
2022/05/07 16:08:22;;;;;;;;;12.60;12.00;;;;;25.06;31.16;99221.22;6233270;28;97745;-68
2022/05/07 16:11:25;;;;;;;;;16.00;15.00;;;;;25.07;31.15;99228.38;6242438;27;96598;-68